createdAt,value
2023-04-19T00:01:14.802Z,57.45
2023-04-19T00:03:43.591Z,57.55
2023-04-19T00:06:15.244Z,57.55
2023-04-19T00:08:43.536Z,57.51
2023-04-19T00:11:12.256Z,57.53
2023-04-19T00:13:41.586Z,57.53
2023-04-19T00:16:10.894Z,57.63
2023-04-19T00:18:40.928Z,57.71
2023-04-19T00:21:11.467Z,57.71
2023-04-19T00:23:42.575Z,57.74
2023-04-19T00:26:16.674Z,57.82
2023-04-19T00:28:47.280Z,57.79
2023-04-19T00:31:18.622Z,57.80
2023-04-19T00:33:48.395Z,57.79
2023-04-19T00:36:33.811Z,57.87
2023-04-19T00:39:19.558Z,57.88
2023-04-19T00:41:48.680Z,57.97
2023-04-19T00:44:24.004Z,57.96
2023-04-19T00:47:15.579Z,58.12
2023-04-19T00:49:47.233Z,58.16
2023-04-19T00:52:20.323Z,58.17
2023-04-19T00:55:08.807Z,58.17
2023-04-19T00:57:54.097Z,58.22
2023-04-19T01:00:27.450Z,58.10
2023-04-19T01:03:27.257Z,58.13
2023-04-19T01:06:07.635Z,58.12
2023-04-19T01:09:12.959Z,58.13
2023-04-19T01:12:05.923Z,58.20
2023-04-19T01:15:35.683Z,58.23
2023-04-19T01:18:08.033Z,58.24
2023-04-19T01:20:37.759Z,58.25
2023-04-19T01:23:14.927Z,58.22
2023-04-19T01:25:47.422Z,58.24
2023-04-19T01:28:28.193Z,58.19
2023-04-19T01:31:09.177Z,58.20
2023-04-19T01:33:46.026Z,58.22
2023-04-19T01:36:20.188Z,58.24
2023-04-19T01:39:19.521Z,58.19
2023-04-19T01:41:48.578Z,58.19
2023-04-19T01:44:18.603Z,58.21
2023-04-19T01:46:52.439Z,58.22
2023-04-19T01:49:33.436Z,58.31
2023-04-19T01:52:07.242Z,58.36
2023-04-19T01:54:40.588Z,58.39
2023-04-19T01:57:18.253Z,58.30
2023-04-19T01:59:53.044Z,58.42
2023-04-19T02:02:31.428Z,58.46
2023-04-19T02:05:01.682Z,58.42
2023-04-19T02:07:37.691Z,58.47
2023-04-19T02:10:42.838Z,58.51
2023-04-19T02:13:23.142Z,58.62
2023-04-19T02:16:36.229Z,58.61
2023-04-19T02:19:06.849Z,58.63
2023-04-19T02:21:35.746Z,58.68
2023-04-19T02:24:06.171Z,58.65
2023-04-19T02:26:35.218Z,58.78
2023-04-19T02:29:06.360Z,58.78
2023-04-19T02:31:39.251Z,58.84
2023-04-19T02:34:48.979Z,58.83
2023-04-19T02:37:29.496Z,58.98
2023-04-19T02:40:01.527Z,59.06
2023-04-19T02:42:30.086Z,59.03
2023-04-19T02:45:09.646Z,59.04
2023-04-19T02:48:05.952Z,59.03
2023-04-19T02:50:54.833Z,59.00
2023-04-19T02:53:28.534Z,59.01
2023-04-19T02:56:03.871Z,58.99
2023-04-19T02:58:36.762Z,59.07
2023-04-19T03:01:13.150Z,59.37
2023-04-19T03:03:41.569Z,59.50
2023-04-19T03:06:18.902Z,59.64
2023-04-19T03:08:50.339Z,59.73
2023-04-19T03:11:28.161Z,59.64
2023-04-19T03:13:57.755Z,59.64
2023-04-19T03:16:31.650Z,59.64
2023-04-19T03:19:18.601Z,59.61
2023-04-19T03:21:49.500Z,59.68
2023-04-19T03:24:26.760Z,59.70
2023-04-19T03:27:17.357Z,59.80
2023-04-19T03:29:53.749Z,59.75
2023-04-19T03:32:37.641Z,59.70
2023-04-19T03:35:43.053Z,59.75
2023-04-19T03:38:12.378Z,59.78
2023-04-19T03:40:40.509Z,59.72
2023-04-19T03:43:09.942Z,59.76
2023-04-19T03:45:39.964Z,59.76
2023-04-19T03:48:09.591Z,59.79
2023-04-19T03:50:39.710Z,59.77
2023-04-19T03:53:11.309Z,59.72
2023-04-19T03:55:41.778Z,59.72
2023-04-19T03:58:11.972Z,59.69
2023-04-19T04:00:40.220Z,61.07
2023-04-19T04:03:08.667Z,61.12
2023-04-19T04:05:36.981Z,60.49
2023-04-19T04:08:05.954Z,60.08
2023-04-19T04:10:34.161Z,59.81
2023-04-19T04:13:02.379Z,59.46
2023-04-19T04:15:30.681Z,60.37
2023-04-19T04:17:59.221Z,60.11
2023-04-19T04:20:27.706Z,60.66
2023-04-19T04:22:55.937Z,59.61
2023-04-19T04:25:25.345Z,59.69
2023-04-19T04:27:54.305Z,59.80
2023-04-19T04:30:22.323Z,59.86
2023-04-19T04:32:51.823Z,59.21
2023-04-19T04:35:21.231Z,58.82
2023-04-19T04:37:50.826Z,58.66
2023-04-19T04:40:20.869Z,58.70
2023-04-19T04:42:49.075Z,59.07
2023-04-19T04:45:18.468Z,59.19
2023-04-19T04:47:47.952Z,58.80
2023-04-19T04:50:17.754Z,58.29
2023-04-19T04:52:46.049Z,58.35
2023-04-19T04:55:14.424Z,58.46
2023-04-19T04:57:42.669Z,58.57
2023-04-19T05:00:12.912Z,58.02
2023-04-19T05:02:41.561Z,58.23
2023-04-19T05:05:11.523Z,57.92
2023-04-19T05:07:41.268Z,57.63
2023-04-19T05:10:12.492Z,57.80
2023-04-19T05:12:41.853Z,58.76
2023-04-19T05:15:11.381Z,59.59
2023-04-19T05:17:39.568Z,59.98
2023-04-19T05:20:09.348Z,60.46
2023-04-19T05:22:38.519Z,61.44
2023-04-19T05:25:09.399Z,62.94
2023-04-19T05:27:38.162Z,63.79
2023-04-19T05:30:08.088Z,64.98
2023-04-19T05:32:38.259Z,65.08
2023-04-19T05:35:08.506Z,66.82
2023-04-19T05:37:37.115Z,66.38
2023-04-19T05:40:09.488Z,66.88
2023-04-19T05:42:38.447Z,68.13
2023-04-19T05:45:08.752Z,67.33
2023-04-19T05:47:38.583Z,68.11
2023-04-19T05:50:09.662Z,68.13
2023-04-19T05:52:38.013Z,68.01
2023-04-19T05:55:06.907Z,68.42
2023-04-19T05:57:36.338Z,68.47
2023-04-19T06:00:05.290Z,68.46
2023-04-19T06:02:33.970Z,68.49
2023-04-19T06:05:09.868Z,68.98
2023-04-19T06:07:43.077Z,67.94
2023-04-19T06:10:15.488Z,68.19
2023-04-19T06:12:44.200Z,67.80
2023-04-19T06:15:12.552Z,68.03
2023-04-19T06:17:41.876Z,67.44
2023-04-19T06:20:11.929Z,67.21
2023-04-19T06:22:45.070Z,67.07
2023-04-19T06:25:15.178Z,67.28
2023-04-19T06:27:43.502Z,67.31
2023-04-19T06:30:12.967Z,67.26
2023-04-19T06:32:41.593Z,66.79
2023-04-19T06:35:11.966Z,66.79
2023-04-19T06:37:40.003Z,66.54
2023-04-19T06:40:09.607Z,66.40
2023-04-19T06:42:38.038Z,65.96
2023-04-19T06:45:17.754Z,65.91
2023-04-19T06:47:46.616Z,66.13
2023-04-19T06:50:15.305Z,66.14
2023-04-19T06:52:43.920Z,66.30
2023-04-19T06:55:14.055Z,66.04
2023-04-19T06:57:44.689Z,66.02
2023-04-19T07:00:18.639Z,66.41
2023-04-19T07:02:48.430Z,66.19
2023-04-19T07:05:17.883Z,66.07
2023-04-19T07:07:46.889Z,66.01
2023-04-19T07:10:15.291Z,65.42
2023-04-19T07:12:43.592Z,64.77
2023-04-19T07:15:12.527Z,64.66
2023-04-19T07:17:41.314Z,64.81
2023-04-19T07:20:12.094Z,65.13
2023-04-19T07:22:42.170Z,65.11
2023-04-19T07:25:11.573Z,65.00
2023-04-19T07:27:40.074Z,64.69
2023-04-19T07:30:09.803Z,64.81
2023-04-19T07:32:38.121Z,64.75
2023-04-19T07:35:07.286Z,64.61
2023-04-19T07:37:35.748Z,64.31
2023-04-19T07:40:05.118Z,63.87
2023-04-19T07:42:34.046Z,64.20
2023-04-19T07:45:03.730Z,64.64
2023-04-19T07:47:32.878Z,64.72
2023-04-19T07:50:01.574Z,63.64
2023-04-19T07:52:30.493Z,63.73
2023-04-19T07:55:07.722Z,63.45
2023-04-19T07:57:48.761Z,63.40
2023-04-19T08:00:21.912Z,63.27
2023-04-19T08:02:53.320Z,63.33
2023-04-19T08:05:21.920Z,63.21
2023-04-19T08:10:05.505Z,63.43
2023-04-19T08:12:08.150Z,63.32
2023-04-19T08:14:28.346Z,63.31
2023-04-19T08:17:22.166Z,63.33
2023-04-19T08:19:49.212Z,62.97
2023-04-19T08:22:21.316Z,62.25
2023-04-19T08:24:52.511Z,62.76
2023-04-19T08:27:22.701Z,63.13
2023-04-19T08:29:51.090Z,63.77
2023-04-19T08:32:20.859Z,63.73
2023-04-19T08:34:50.098Z,63.56
2023-04-19T08:37:18.503Z,63.38
2023-04-19T08:39:47.303Z,63.58
2023-04-19T08:45:19.039Z,62.97
2023-04-19T08:47:56.376Z,62.85
2023-04-19T08:50:33.450Z,63.19
2023-04-19T08:53:21.009Z,63.04
2023-04-19T08:56:10.682Z,62.44
2023-04-19T08:58:57.745Z,62.14
2023-04-19T09:01:35.962Z,61.18
2023-04-19T09:04:34.832Z,61.06
2023-04-19T09:07:05.671Z,60.56
2023-04-19T09:09:45.646Z,60.62
2023-04-19T09:12:27.294Z,60.51
2023-04-19T09:15:01.679Z,60.51
2023-04-19T09:17:32.260Z,60.46
2023-04-19T09:20:00.982Z,60.88
2023-04-19T09:22:29.794Z,60.50
2023-04-19T09:27:36.880Z,60.87
2023-04-19T09:30:17.519Z,61.11
2023-04-19T09:32:54.595Z,60.70
2023-04-19T09:35:54.276Z,60.10
2023-04-19T09:38:24.099Z,60.10
2023-04-19T09:40:55.442Z,59.22
2023-04-19T09:43:53.104Z,59.05
2023-04-19T09:46:27.890Z,59.12
2023-04-19T09:49:00.255Z,59.06
2023-04-19T09:51:41.440Z,57.89
2023-04-19T09:54:24.211Z,58.03
2023-04-19T09:56:57.039Z,58.52
2023-04-19T09:59:26.941Z,57.43
2023-04-19T10:01:56.666Z,57.83
2023-04-19T10:04:44.152Z,57.86
2023-04-19T10:09:59.931Z,55.44
2023-04-19T10:15:10.233Z,57.16
2023-04-19T10:17:59.489Z,57.17
2023-04-19T10:20:30.746Z,57.22
2023-04-19T10:22:59.619Z,57.31
2023-04-19T10:25:30.107Z,56.88
2023-04-19T10:27:58.477Z,56.43
2023-04-19T10:30:27.105Z,57.09
2023-04-19T10:32:57.500Z,57.35
2023-04-19T10:35:28.982Z,57.38
2023-04-19T10:38:09.003Z,57.51
2023-04-19T10:41:00.959Z,57.66
2023-04-19T10:43:41.163Z,57.13
2023-04-19T10:46:14.135Z,56.91
2023-04-19T10:48:55.923Z,57.27
2023-04-19T10:51:28.879Z,57.04
2023-04-19T10:54:06.251Z,56.79
2023-04-19T10:57:04.628Z,56.89
2023-04-19T10:59:34.182Z,56.20
2023-04-19T11:02:03.572Z,56.29
2023-04-19T11:04:49.986Z,56.85
2023-04-19T11:07:20.758Z,57.18
2023-04-19T11:10:04.469Z,57.26
2023-04-19T11:12:37.035Z,57.15
2023-04-19T11:15:08.897Z,57.30
2023-04-19T11:17:41.180Z,56.96
2023-04-19T11:20:11.821Z,56.83
2023-04-19T11:22:43.562Z,56.78
2023-04-19T11:25:13.403Z,56.44
2023-04-19T11:27:45.002Z,56.84
2023-04-19T11:30:14.354Z,57.19
2023-04-19T11:32:58.187Z,57.29
2023-04-19T11:35:32.224Z,57.19
2023-04-19T11:38:01.694Z,56.19
2023-04-19T11:40:32.649Z,55.49
2023-04-19T11:43:03.648Z,55.80
2023-04-19T11:45:38.587Z,56.01
2023-04-19T11:48:20.726Z,56.10
2023-04-19T11:51:00.110Z,56.31
2023-04-19T11:53:32.153Z,55.59
2023-04-19T11:56:05.654Z,55.73
2023-04-19T11:58:37.090Z,55.61
2023-04-19T12:01:06.517Z,55.86
2023-04-19T12:03:56.228Z,55.70
2023-04-19T12:06:28.287Z,55.56
2023-04-19T12:09:09.004Z,55.74
2023-04-19T12:11:49.550Z,55.54
2023-04-19T12:14:19.684Z,55.42
2023-04-19T12:17:04.106Z,55.36
2023-04-19T12:19:45.417Z,55.47
2023-04-19T12:22:15.979Z,54.15
2023-04-19T12:24:45.648Z,54.56
2023-04-19T12:27:17.544Z,54.11
2023-04-19T12:29:48.358Z,53.38
2023-04-19T12:32:18.854Z,53.70
2023-04-19T12:34:48.600Z,53.95
2023-04-19T12:37:17.542Z,53.41
2023-04-19T12:39:46.268Z,53.74
2023-04-19T12:42:14.857Z,53.84
2023-04-19T12:44:45.178Z,53.88
2023-04-19T12:47:16.315Z,53.33
2023-04-19T12:49:45.691Z,53.00
2023-04-19T12:52:13.846Z,52.86
2023-04-19T12:54:45.728Z,52.94
2023-04-19T12:57:16.652Z,53.01
2023-04-19T13:00:04.788Z,51.97
2023-04-19T13:02:44.152Z,52.64
2023-04-19T13:05:15.874Z,52.80
2023-04-19T13:07:50.102Z,53.04
2023-04-19T13:10:21.284Z,52.89
2023-04-19T13:12:50.423Z,53.25
2023-04-19T13:15:20.088Z,53.27
2023-04-19T13:17:48.222Z,53.24
2023-04-19T13:20:18.656Z,53.11
2023-04-19T13:22:50.873Z,53.15
2023-04-19T13:25:20.380Z,52.95
2023-04-19T13:27:55.613Z,53.11
2023-04-19T13:30:26.353Z,53.01
2023-04-19T13:33:04.778Z,53.19
2023-04-19T13:35:41.169Z,53.35
2023-04-19T13:38:09.772Z,54.54
2023-04-19T13:40:40.018Z,56.07
2023-04-19T13:43:08.248Z,57.08
2023-04-19T13:45:37.092Z,58.12
2023-04-19T13:48:07.222Z,58.88
2023-04-19T13:50:44.771Z,59.76
2023-04-19T13:53:15.409Z,60.32
2023-04-19T13:55:43.886Z,60.43
2023-04-19T13:58:12.799Z,60.55
2023-04-19T14:00:43.055Z,60.56
2023-04-19T14:03:19.870Z,60.80
2023-04-19T14:05:52.383Z,60.75
2023-04-19T14:08:59.794Z,61.32
2023-04-19T14:11:44.317Z,61.64
2023-04-19T14:14:14.912Z,61.80
2023-04-19T14:16:52.122Z,61.99
2023-04-19T14:19:37.306Z,62.50
2023-04-19T14:22:16.500Z,62.64
2023-04-19T14:24:56.596Z,63.03
2023-04-19T14:27:26.778Z,63.28
2023-04-19T14:30:01.157Z,63.63
2023-04-19T14:32:51.395Z,63.60
2023-04-19T14:35:43.752Z,63.70
2023-04-19T14:38:12.456Z,63.76
2023-04-19T14:40:42.648Z,63.72
2023-04-19T14:43:28.635Z,63.81
2023-04-19T14:45:58.402Z,63.83
2023-04-19T14:48:28.169Z,64.13
2023-04-19T14:50:56.626Z,64.29
2023-04-19T14:53:25.820Z,64.35
2023-04-19T14:55:54.909Z,64.54
2023-04-19T14:58:24.321Z,64.82
2023-04-19T15:00:54.626Z,64.82
2023-04-19T15:03:22.841Z,65.04
2023-04-19T15:05:52.751Z,65.28
2023-04-19T15:08:30.112Z,65.19
2023-04-19T15:11:00.887Z,65.48
2023-04-19T15:13:29.848Z,65.66
2023-04-19T15:16:02.530Z,65.74
2023-04-19T15:18:32.581Z,65.84
2023-04-19T15:21:02.553Z,65.75
2023-04-19T15:23:30.837Z,65.77
2023-04-19T15:25:59.527Z,66.23
2023-04-19T15:28:29.526Z,66.31
2023-04-19T15:30:58.982Z,66.37
2023-04-19T15:33:35.882Z,66.46
2023-04-19T15:36:04.188Z,66.42
2023-04-19T15:38:32.584Z,66.47
2023-04-19T15:41:01.675Z,66.56
2023-04-19T15:43:31.177Z,66.50
2023-04-19T15:46:02.329Z,66.52
2023-04-19T15:48:31.228Z,66.58
2023-04-19T15:51:00.830Z,66.73
2023-04-19T15:53:29.326Z,67.02
2023-04-19T15:55:57.879Z,67.06
2023-04-19T15:58:26.399Z,67.09
2023-04-19T16:00:56.090Z,66.96
2023-04-19T16:03:29.208Z,67.00
2023-04-19T16:05:59.785Z,67.12
2023-04-19T16:08:30.533Z,67.00
2023-04-19T16:11:00.034Z,67.32
2023-04-19T16:13:30.112Z,67.70
2023-04-19T16:16:00.643Z,67.80
2023-04-19T16:18:28.887Z,68.06
2023-04-19T16:21:00.004Z,68.05
2023-04-19T16:23:30.670Z,68.14
2023-04-19T16:26:02.059Z,68.24
2023-04-19T16:28:34.754Z,68.30
2023-04-19T16:31:14.013Z,68.28
2023-04-19T16:33:42.573Z,68.52
2023-04-19T16:36:10.792Z,68.49
2023-04-19T16:38:38.996Z,68.59
2023-04-19T16:41:08.734Z,68.90
2023-04-19T16:43:37.048Z,69.00
2023-04-19T16:46:07.462Z,69.03
2023-04-19T16:48:35.832Z,69.15
2023-04-19T16:51:04.325Z,69.30
2023-04-19T16:53:33.161Z,69.51
2023-04-19T16:56:03.182Z,69.57
2023-04-19T16:58:32.605Z,69.73
2023-04-19T17:01:03.871Z,69.84
2023-04-19T17:03:32.442Z,69.82
2023-04-19T17:06:00.915Z,69.78
2023-04-19T17:08:29.337Z,69.70
2023-04-19T17:10:57.572Z,69.64
2023-04-19T17:13:26.471Z,69.36
2023-04-19T17:15:55.594Z,69.25
2023-04-19T17:18:24.909Z,69.28
2023-04-19T17:20:53.239Z,69.30
2023-04-19T17:23:27.340Z,69.44
2023-04-19T17:25:58.955Z,69.38
2023-04-19T17:28:27.775Z,69.37
2023-04-19T17:30:56.985Z,69.29
2023-04-19T17:33:26.096Z,69.42
2023-04-19T17:35:55.399Z,69.42
2023-04-19T17:38:26.163Z,69.50
2023-04-19T17:40:55.328Z,69.39
2023-04-19T17:43:26.752Z,69.60
2023-04-19T17:45:57.572Z,69.60
2023-04-19T17:48:26.633Z,69.66
2023-04-19T17:50:55.605Z,69.73
2023-04-19T17:53:26.876Z,69.78
2023-04-19T17:55:57.447Z,69.98
2023-04-19T17:58:26.248Z,69.97
2023-04-19T18:00:55.298Z,69.94
2023-04-19T18:03:25.450Z,70.33
2023-04-19T18:05:53.748Z,70.59
2023-04-19T18:08:23.556Z,70.33
2023-04-19T18:10:52.860Z,70.13
2023-04-19T18:13:21.974Z,70.06
2023-04-19T18:15:50.657Z,69.92
2023-04-19T18:18:19.396Z,69.68
2023-04-19T18:20:47.621Z,69.79
2023-04-19T18:23:16.014Z,69.69
2023-04-19T18:25:44.380Z,69.82
2023-04-19T18:28:12.744Z,69.91
2023-04-19T18:30:41.070Z,70.09
2023-04-19T18:33:09.421Z,70.26
2023-04-19T18:35:37.832Z,70.41
2023-04-19T18:38:07.127Z,70.70
2023-04-19T18:40:36.632Z,70.84
2023-04-19T18:43:08.639Z,70.96
2023-04-19T18:45:40.944Z,70.95
2023-04-19T18:48:11.230Z,70.98
2023-04-19T18:50:39.611Z,71.08
2023-04-19T18:53:20.281Z,71.20
2023-04-19T18:56:18.601Z,71.24
2023-04-19T18:58:48.961Z,71.57
2023-04-19T19:01:20.995Z,71.48
2023-04-19T19:04:10.648Z,71.79
2023-04-19T19:06:38.575Z,71.69
2023-04-19T19:09:11.011Z,71.65
2023-04-19T19:11:55.455Z,71.53
2023-04-19T19:14:25.874Z,71.43
2023-04-19T19:16:56.754Z,71.32
2023-04-19T19:19:26.888Z,71.42
2023-04-19T19:21:56.093Z,71.21
2023-04-19T19:24:25.493Z,71.47
2023-04-19T19:26:54.035Z,71.69
2023-04-19T19:29:24.769Z,71.73
2023-04-19T19:31:58.177Z,71.74
2023-04-19T19:34:30.479Z,71.80
2023-04-19T19:37:08.748Z,71.96
2023-04-19T19:39:39.305Z,71.98
2023-04-19T19:42:07.569Z,72.09
2023-04-19T19:44:35.965Z,72.03
2023-04-19T19:47:09.792Z,71.62
2023-04-19T19:52:11.681Z,71.52
2023-04-19T19:54:40.099Z,71.33
2023-04-19T19:58:06.864Z,71.37
2023-04-19T20:00:13.051Z,71.45
2023-04-19T20:05:19.850Z,71.45
2023-04-19T20:08:01.342Z,71.53
2023-04-19T20:10:31.597Z,71.64
2023-04-19T20:13:00.970Z,71.62
2023-04-19T20:15:29.693Z,71.52
2023-04-19T20:17:58.124Z,71.51
2023-04-19T20:20:27.343Z,71.45
2023-04-19T20:22:56.267Z,71.25
2023-04-19T20:25:25.621Z,71.18
2023-04-19T20:27:55.326Z,71.26
2023-04-19T20:30:23.766Z,71.36
2023-04-19T20:32:53.027Z,71.52
2023-04-19T20:35:21.861Z,71.50
2023-04-19T20:37:50.409Z,71.79
2023-04-19T20:40:18.672Z,71.90
2023-04-19T20:42:47.026Z,72.05
2023-04-19T20:45:16.555Z,72.27
2023-04-19T20:47:47.331Z,72.35
2023-04-19T20:50:15.611Z,72.33
2023-04-19T20:52:44.096Z,72.37
2023-04-19T20:55:13.064Z,72.35
2023-04-19T21:08:45.634Z,72.57
2023-04-19T21:11:13.925Z,72.63
2023-04-19T21:13:41.952Z,72.64
2023-04-19T21:16:11.349Z,72.85
2023-04-19T21:18:41.070Z,72.83
2023-04-19T21:21:09.417Z,72.90
2023-04-19T21:23:38.584Z,72.89
2023-04-19T21:26:07.753Z,73.05
2023-04-19T21:28:36.049Z,73.04
2023-04-19T21:31:04.428Z,73.18
2023-04-19T21:33:33.425Z,73.45
2023-04-19T21:36:01.698Z,73.62
2023-04-19T21:38:30.055Z,73.61
2023-04-19T21:41:04.878Z,73.69
2023-04-19T21:43:32.959Z,73.74
2023-04-19T21:46:04.246Z,73.56
2023-04-19T21:48:32.362Z,73.48
2023-04-19T21:51:01.193Z,73.61
2023-04-19T21:53:29.696Z,73.61
2023-04-19T21:55:58.188Z,73.49
2023-04-19T21:58:27.302Z,73.38
2023-04-19T22:00:56.736Z,73.31
2023-04-19T22:03:26.454Z,73.21
2023-04-19T22:05:55.545Z,73.37
2023-04-19T22:08:24.225Z,73.38
2023-04-19T22:10:53.032Z,73.60
2023-04-19T22:13:21.695Z,73.50
2023-04-19T22:15:50.168Z,73.61
2023-04-19T22:18:18.354Z,73.65
2023-04-19T22:20:49.490Z,73.84
2023-04-19T22:23:17.850Z,73.98
2023-04-19T22:25:46.045Z,74.07
2023-04-19T22:28:14.319Z,74.21
2023-04-19T22:30:42.520Z,74.12
2023-04-19T22:33:12.500Z,74.20
2023-04-19T22:35:41.140Z,74.23
2023-04-19T22:38:09.689Z,74.22
2023-04-19T22:40:38.154Z,74.28
2023-04-19T22:43:06.246Z,74.18
2023-04-19T22:45:35.421Z,74.20
2023-04-19T22:48:03.879Z,74.30
2023-04-19T22:50:34.201Z,74.40
2023-04-19T22:53:02.721Z,74.39
2023-04-19T22:55:31.568Z,74.37
2023-04-19T22:57:59.890Z,74.35
2023-04-19T23:00:28.895Z,74.40
2023-04-19T23:02:58.918Z,74.59
2023-04-19T23:05:28.955Z,74.97
2023-04-19T23:07:59.203Z,74.93
2023-04-19T23:10:28.910Z,74.84
2023-04-19T23:13:01.178Z,75.19
2023-04-19T23:15:30.912Z,75.23
2023-04-19T23:18:01.756Z,75.07
2023-04-19T23:20:31.548Z,75.16
2023-04-19T23:23:01.673Z,75.36
2023-04-19T23:25:30.756Z,75.48
2023-04-19T23:27:59.904Z,75.10
2023-04-19T23:30:31.515Z,75.34
2023-04-19T23:33:00.978Z,75.22
2023-04-19T23:35:30.916Z,75.30
2023-04-19T23:38:00.236Z,75.21
2023-04-19T23:40:29.640Z,75.23
2023-04-19T23:42:59.211Z,75.26
2023-04-19T23:45:27.727Z,75.55
2023-04-19T23:47:56.861Z,75.89
2023-04-19T23:50:25.838Z,75.56
2023-04-19T23:52:55.073Z,75.56
2023-04-19T23:55:23.979Z,75.53
2023-04-19T23:57:52.598Z,75.39
